Time;durP1;ratioP1;P1;durP2;ratioP2;P2;SDS_P1;SDS_P2;PMS_P1;PMS_P2;Temp;Humidity;BMP_temperature;BMP_pressure;BME280_temperature;BME280_humidity;BME280_pressure;Samples;Min_cycle;Max_cycle;Signal;HPM_P1;HPM_P2
2022/06/24 04:30:28;;;;;;;;;3.50;3.50;;;;;20.92;68.80;100417.00;5049873;27;46532;-78
2022/06/24 04:32:53;;;;;;;;;4.75;4.00;;;;;20.94;68.68;100416.84;5013765;28;45542;-78
2022/06/24 04:35:19;;;;;;;;;3.00;3.00;;;;;21.00;68.14;100410.84;5014003;28;45441;-77
2022/06/24 04:37:45;;;;;;;;;5.25;5.25;;;;;21.03;68.06;100419.56;5013520;28;45375;-79
2022/06/24 04:40:13;;;;;;;;;4.25;4.25;;;;;21.02;68.26;100415.09;5002052;28;45335;-79
2022/06/24 04:42:39;;;;;;;;;3.00;3.00;;;;;21.03;68.44;100425.00;4994219;28;45523;-77
2022/06/24 04:45:05;;;;;;;;;5.00;5.00;;;;;20.79;68.43;100391.91;4994408;28;45390;-77
2022/06/24 04:47:30;;;;;;;;;4.00;4.00;;;;;21.00;68.34;100419.00;4993138;28;46089;-78
2022/06/24 04:49:56;;;;;;;;;5.00;5.00;;;;;20.98;68.45;100418.28;4994155;28;45235;-78
2022/06/24 04:52:21;;;;;;;;;4.00;4.00;;;;;21.01;68.34;100421.56;4994136;28;45399;-77
2022/06/24 04:54:48;;;;;;;;;3.50;3.50;;;;;21.00;68.44;100408.97;4993070;28;45426;-79
2022/06/24 04:57:13;;;;;;;;;5.00;5.00;;;;;20.90;68.21;100405.38;4993711;28;46500;-78
2022/06/24 04:59:39;;;;;;;;;4.00;4.00;;;;;20.95;68.33;100415.84;4993877;28;45321;-79
2022/06/24 05:02:04;;;;;;;;;5.50;5.50;;;;;20.83;68.57;100396.06;4999105;28;45660;-79
2022/06/24 05:04:29;;;;;;;;;4.75;4.75;;;;;20.78;68.37;100412.84;5013505;28;45328;-80
2022/06/24 05:06:55;;;;;;;;;5.50;5.50;;;;;20.89;68.54;100427.31;4995584;28;47251;-78
2022/06/24 05:09:20;;;;;;;;;5.00;5.00;;;;;20.82;69.11;100415.28;5001259;28;45287;-79
2022/06/24 05:11:48;;;;;;;;;5.50;5.00;;;;;20.80;69.01;100428.19;5007251;28;45477;-78
2022/06/24 05:14:14;;;;;;;;;5.00;5.00;;;;;20.76;69.31;100414.84;4993398;28;45517;-77
2022/06/24 05:16:41;;;;;;;;;6.25;6.25;;;;;20.85;69.36;100418.56;4992998;28;46051;-80
2022/06/24 05:19:08;;;;;;;;;5.00;5.00;;;;;20.72;69.17;100404.38;4976617;28;45437;-76
2022/06/24 05:21:33;;;;;;;;;4.00;4.00;;;;;20.62;69.09;100401.66;4996680;28;45420;-76
2022/06/24 05:23:59;;;;;;;;;7.25;6.25;;;;;20.77;69.13;100430.19;4996292;28;45529;-77
2022/06/24 05:26:25;;;;;;;;;6.25;5.50;;;;;20.64;69.73;100413.28;4979183;28;46508;-81
2022/06/24 05:28:50;;;;;;;;;4.50;4.50;;;;;20.54;69.78;100397.94;4997058;28;45365;-77
2022/06/24 05:31:15;;;;;;;;;6.50;6.00;;;;;20.55;70.14;100418.72;5003144;28;45307;-75
2022/06/24 05:33:41;;;;;;;;;6.50;6.50;;;;;20.69;70.05;100430.03;5015901;28;45525;-78
2022/06/24 05:36:06;;;;;;;;;7.25;5.50;;;;;20.69;69.59;100413.69;5016423;28;45992;-76
2022/06/24 05:38:32;;;;;;;;;5.50;5.50;;;;;20.67;69.23;100407.53;5016385;28;45177;-77
2022/06/24 05:40:57;;;;;;;;;7.75;6.00;;;;;20.87;69.04;100424.75;5016090;28;45234;-75
2022/06/24 05:43:22;;;;;;;;;6.00;6.00;;;;;20.82;68.91;100418.00;5015925;28;45547;-77
2022/06/24 05:45:48;;;;;;;;;6.50;6.50;;;;;20.82;68.54;100431.63;5015914;28;45324;-77
2022/06/24 05:48:14;;;;;;;;;6.00;6.00;;;;;20.78;68.71;100411.97;5016238;28;45347;-76
2022/06/24 05:50:40;;;;;;;;;5.00;5.00;;;;;20.83;68.75;100409.69;5016144;28;45416;-77
2022/06/24 05:55:50;;;;;;;;;5.25;5.25;;;;;20.96;67.65;100432.06;5036096;28;45564;-76
2022/06/24 05:58:16;;;;;;;;;5.50;5.50;;;;;20.88;67.43;100421.00;5035998;28;45518;-77
2022/06/24 06:00:42;;;;;;;;;6.50;5.00;;;;;20.96;67.25;100439.38;5035092;28;45329;-77
2022/06/24 06:03:07;;;;;;;;;5.25;5.25;;;;;20.81;67.44;100440.81;5034595;28;45546;-76
2022/06/24 06:05:33;;;;;;;;;6.25;6.25;;;;;20.80;67.53;100430.91;5005529;28;47212;-78
2022/06/24 06:07:58;;;;;;;;;6.00;6.00;;;;;20.83;67.25;100436.09;5034375;28;45322;-79
2022/06/24 06:10:23;;;;;;;;;5.25;5.25;;;;;20.76;67.21;100433.91;5023073;28;45435;-79
2022/06/24 06:12:49;;;;;;;;;5.00;5.00;;;;;20.71;67.19;100435.34;5035843;28;45405;-77
2022/06/24 06:15:14;;;;;;;;;3.50;3.50;;;;;20.73;67.30;100445.13;5036200;28;45985;-77
2022/06/24 06:17:40;;;;;;;;;5.50;4.50;;;;;20.66;68.30;100445.81;5036310;28;45247;-80
2022/06/24 06:20:05;;;;;;;;;5.25;5.25;;;;;20.70;68.01;100452.69;5036996;28;45382;-79
2022/06/24 06:22:31;;;;;;;;;4.00;4.00;;;;;20.62;67.88;100439.78;5018416;28;46217;-78
2022/06/24 06:24:57;;;;;;;;;6.25;6.25;;;;;20.63;68.04;100444.25;5036145;28;45608;-78
2022/06/24 06:27:22;;;;;;;;;6.50;6.50;;;;;20.52;68.08;100432.59;5017728;28;45372;-79
2022/06/24 06:29:47;;;;;;;;;5.75;5.75;;;;;20.56;68.06;100448.53;5035946;28;45311;-79
2022/06/24 06:32:13;;;;;;;;;4.25;4.25;;;;;20.38;67.72;100434.75;5035431;28;45546;-80
2022/06/24 06:34:38;;;;;;;;;4.00;4.00;;;;;20.50;68.53;100449.06;5036169;28;45368;-79
2022/06/24 06:37:04;;;;;;;;;4.00;4.00;;;;;20.52;68.15;100455.25;5018250;28;45417;-77
2022/06/24 06:39:29;;;;;;;;;6.00;5.00;;;;;20.56;68.17;100462.16;5035603;28;45348;-70
2022/06/24 06:41:55;;;;;;;;;4.00;4.00;;;;;20.55;67.68;100462.28;5035600;28;45504;-71
2022/06/24 06:44:20;;;;;;;;;4.50;4.50;;;;;20.54;67.75;100455.13;5035133;28;45467;-68
2022/06/24 06:46:45;;;;;;;;;6.50;4.75;;;;;20.62;67.47;100458.00;5034732;28;45326;-70
2022/06/24 06:49:11;;;;;;;;;4.50;3.00;;;;;20.52;67.16;100463.41;5035127;28;45497;-73
2022/06/24 06:51:36;;;;;;;;;5.25;5.25;;;;;20.55;66.92;100465.88;5031352;28;45432;-74
2022/06/24 06:54:02;;;;;;;;;4.00;4.00;;;;;20.51;66.81;100464.41;5028390;28;45908;-75
2022/06/24 06:56:27;;;;;;;;;4.75;4.50;;;;;20.48;66.65;100478.34;5021337;28;45432;-74
2022/06/24 06:58:57;;;;;;;;;5.75;5.75;;;;;20.44;67.21;100473.28;5028599;28;45524;-76
2022/06/24 07:01:23;;;;;;;;;7.00;4.00;;;;;20.45;67.11;100473.16;5034303;28;45374;-74
2022/06/24 07:03:48;;;;;;;;;4.00;4.00;;;;;20.31;67.85;100454.47;5035148;28;45332;-73
2022/06/24 07:06:13;;;;;;;;;3.75;3.75;;;;;20.39;67.68;100473.72;5017344;28;45349;-76
2022/06/24 07:08:39;;;;;;;;;6.25;6.25;;;;;20.43;67.90;100472.44;5033920;28;45857;-69
2022/06/24 07:11:04;;;;;;;;;5.00;5.00;;;;;20.43;67.49;100457.94;5033195;28;45458;-69
2022/06/24 07:13:30;;;;;;;;;4.00;4.00;;;;;20.49;67.90;100446.53;5027302;28;45402;-71
2022/06/24 07:15:56;;;;;;;;;5.50;5.50;;;;;20.62;67.29;100456.13;5042819;28;45583;-72
2022/06/24 07:18:21;;;;;;;;;5.25;5.00;;;;;20.71;67.07;100451.69;5015820;28;45403;-71
2022/06/24 07:20:46;;;;;;;;;5.00;5.00;;;;;20.70;66.93;100441.81;5014862;28;45285;-71
2022/06/24 07:23:12;;;;;;;;;7.25;6.00;;;;;20.75;66.69;100448.56;5014119;28;46182;-71
2022/06/24 07:25:37;;;;;;;;;6.25;4.25;;;;;20.76;66.60;100450.25;5032753;28;45532;-70
2022/06/24 07:28:04;;;;;;;;;5.00;5.00;;;;;20.75;66.54;100448.56;5014400;28;45444;-72
2022/06/24 07:30:30;;;;;;;;;5.50;5.50;;;;;20.74;66.63;100455.00;5038170;28;46984;-70
2022/06/24 07:32:55;;;;;;;;;3.25;3.25;;;;;20.77;66.23;100451.97;5027807;28;46132;-71
2022/06/24 07:35:21;;;;;;;;;6.25;4.00;;;;;20.62;66.08;100430.75;5027042;28;45464;-69
2022/06/24 07:37:46;;;;;;;;;5.75;4.00;;;;;20.76;66.00;100439.34;5014039;28;45463;-70
2022/06/24 07:40:12;;;;;;;;;3.00;2.00;;;;;20.92;65.68;100448.84;5028248;28;45528;-71
2022/06/24 07:42:37;;;;;;;;;6.25;4.50;;;;;20.98;65.62;100445.53;5033028;28;45550;-71
2022/06/24 07:45:03;;;;;;;;;4.00;4.00;;;;;20.94;64.24;100446.81;5033483;28;45427;-71
2022/06/24 07:47:29;;;;;;;;;3.25;2.00;;;;;20.95;65.32;100445.81;5033514;28;45414;-68
2022/06/24 07:49:54;;;;;;;;;4.00;4.00;;;;;21.00;65.30;100440.81;5033818;28;45381;-70
2022/06/24 07:52:19;;;;;;;;;5.00;4.50;;;;;21.14;64.93;100441.22;5029430;28;46009;-70
2022/06/24 07:54:45;;;;;;;;;4.00;4.00;;;;;21.27;64.62;100445.53;5021377;28;45401;-71
2022/06/24 07:57:10;;;;;;;;;5.00;5.00;;;;;21.39;64.39;100442.50;5019454;28;45623;-70
2022/06/24 07:59:37;;;;;;;;;4.00;4.00;;;;;21.48;64.19;100432.56;5016020;28;47374;-70
2022/06/24 08:02:06;;;;;;;;;4.00;4.00;;;;;21.57;63.70;100428.97;5032958;28;45502;-69
2022/06/24 08:04:31;;;;;;;;;5.00;5.00;;;;;21.63;63.19;100432.94;5033776;28;45404;-69
2022/06/24 08:06:58;;;;;;;;;4.00;4.00;;;;;21.61;63.33;100419.44;5033521;28;45387;-69
2022/06/24 08:09:27;;;;;;;;;6.25;5.00;;;;;21.73;62.61;100433.78;5021071;28;46218;-70
2022/06/24 08:11:53;;;;;;;;;5.00;5.00;;;;;21.71;62.19;100446.72;5033628;28;46312;-71
2022/06/24 08:14:20;;;;;;;;;7.50;6.00;;;;;21.68;62.40;100436.13;5033910;28;45254;-69
2022/06/24 08:16:45;;;;;;;;;4.75;3.75;;;;;21.75;62.16;100440.81;5033063;28;45360;-71
2022/06/24 08:19:11;;;;;;;;;6.50;4.75;;;;;21.79;62.45;100453.13;5033290;28;45575;-71
2022/06/24 08:21:37;;;;;;;;;2.50;2.25;;;;;;;;5033467;28;45593;-72
2022/06/24 08:24:03;;;;;;;;;7.75;5.25;;;;;21.84;60.39;100442.66;5033509;28;45406;-74
2022/06/24 08:26:28;;;;;;;;;4.75;4.75;;;;;21.96;59.86;100450.63;5033714;28;45382;-72
2022/06/24 08:28:54;;;;;;;;;4.00;4.00;;;;;21.92;59.36;100439.16;5033251;28;45373;-70
2022/06/24 08:31:20;;;;;;;;;4.00;4.00;;;;;21.92;58.68;100443.78;5033119;28;46379;-70
2022/06/24 08:33:45;;;;;;;;;6.50;4.75;;;;;21.98;59.04;100437.72;5033347;28;45416;-71
2022/06/24 08:36:11;;;;;;;;;4.75;3.25;;;;;22.02;58.93;100442.75;5032848;28;45788;-70
2022/06/24 08:38:37;;;;;;;;;5.50;3.75;;;;;22.06;58.57;100449.63;5033071;28;45298;-75
2022/06/24 08:41:03;;;;;;;;;8.50;6.75;;;;;22.15;58.63;100445.97;5033271;28;45463;-72
2022/06/24 08:43:31;;;;;;;;;3.25;1.75;;;;;22.12;57.91;100435.34;5033238;28;45384;-72
2022/06/24 08:45:57;;;;;;;;;4.00;4.00;;;;;22.22;58.10;100436.16;4995661;28;45346;-72
2022/06/24 08:48:25;;;;;;;;;3.00;3.00;;;;;22.34;56.91;100444.16;5013347;28;45467;-72
2022/06/24 08:50:51;;;;;;;;;3.50;3.50;;;;;22.35;56.32;100445.88;5013056;28;46238;-71
2022/06/24 08:53:20;;;;;;;;;2.00;2.00;;;;;22.37;56.42;100433.75;5027347;28;45754;-69
2022/06/24 08:55:50;;;;;;;;;3.00;3.00;;;;;22.37;56.58;100419.28;5036892;28;45568;-74
2022/06/24 08:58:17;;;;;;;;;2.00;2.00;;;;;22.36;56.83;100432.06;5036622;28;45459;-73
2022/06/24 09:00:43;;;;;;;;;3.50;3.50;;;;;22.34;56.65;100425.91;5036561;28;45334;-72
2022/06/24 09:03:10;;;;;;;;;3.25;3.25;;;;;22.39;56.77;100422.69;5019014;28;45559;-71
2022/06/24 09:05:36;;;;;;;;;4.00;4.00;;;;;22.37;57.43;100414.63;5036749;28;45306;-74
2022/06/24 09:08:15;;;;;;;;;2.75;2.75;;;;;22.23;55.42;100407.84;5034562;28;46200;-71
2022/06/24 09:11:06;;;;;;;;;3.00;2.50;;;;;22.31;56.34;100398.03;5025950;28;46202;-71
2022/06/24 09:13:43;;;;;;;;;2.00;1.00;;;;;22.45;56.08;100409.28;5035350;28;45571;-71
2022/06/24 09:16:09;;;;;;;;;3.25;3.25;;;;;22.39;56.60;100393.50;5034774;28;45482;-72
2022/06/24 09:18:35;;;;;;;;;3.25;2.00;;;;;22.47;56.25;100399.06;5024451;28;45419;-71
2022/06/24 09:21:01;;;;;;;;;2.25;2.25;;;;;22.36;56.13;100382.91;5036267;28;45473;-71
2022/06/24 09:23:27;;;;;;;;;5.75;2.50;;;;;22.40;55.70;100388.91;5036649;28;45917;-71
2022/06/24 09:25:56;;;;;;;;;3.50;3.50;;;;;22.42;56.04;100395.94;5036024;28;45667;-69
2022/06/24 09:28:30;;;;;;;;;3.75;2.25;;;;;22.36;56.04;100382.03;5036351;28;45237;-70
2022/06/24 09:31:02;;;;;;;;;2.25;2.25;;;;;22.50;54.98;100381.50;5035705;28;45506;-71
2022/06/24 09:33:35;;;;;;;;;3.00;3.00;;;;;22.49;54.85;100366.13;5035832;28;45500;-70
2022/06/24 09:36:06;;;;;;;;;3.50;2.00;;;;;22.57;54.87;100386.19;5018273;28;45601;-70
2022/06/24 09:38:32;;;;;;;;;3.25;2.00;;;;;22.51;55.15;100362.22;5018902;28;45400;-70
2022/06/24 09:41:04;;;;;;;;;5.50;2.25;;;;;22.59;55.21;100366.91;5035783;28;45359;-70
2022/06/24 09:43:31;;;;;;;;;0.25;0.25;;;;;22.70;54.72;100358.47;5035549;28;45399;-70
2022/06/24 09:45:58;;;;;;;;;1.75;1.75;;;;;22.75;54.38;100358.03;5035796;28;45688;-70
2022/06/24 09:48:34;;;;;;;;;4.00;2.75;;;;;22.62;54.53;100362.00;5035994;28;45486;-71
2022/06/24 09:51:02;;;;;;;;;1.00;1.00;;;;;22.64;54.17;100362.66;5036076;28;46248;-71
2022/06/24 09:53:29;;;;;;;;;3.00;1.25;;;;;22.64;53.95;100350.88;5035990;28;45462;-70
2022/06/24 09:55:54;;;;;;;;;1.75;1.75;;;;;22.74;53.63;100354.44;5035755;28;45418;-70
2022/06/24 09:58:21;;;;;;;;;1.00;1.00;;;;;22.63;53.26;100330.03;5035523;28;45933;-70
2022/06/24 10:00:48;;;;;;;;;0.50;0.50;;;;;22.88;53.10;100356.59;5034907;28;46329;-73
2022/06/24 10:03:14;;;;;;;;;2.25;1.00;;;;;23.02;53.45;100360.63;5035549;28;45593;-70
2022/06/24 10:05:46;;;;;;;;;2.00;2.00;;;;;23.13;51.98;100359.53;5034888;28;45530;-71
2022/06/24 10:08:15;;;;;;;;;1.00;1.00;;;;;23.11;51.82;100356.09;5034988;28;45450;-70
2022/06/24 10:10:47;;;;;;;;;2.25;2.25;;;;;23.01;51.81;100362.50;5035716;28;45448;-72
2022/06/24 10:13:32;;;;;;;;;1.00;1.00;;;;;22.97;51.97;100360.25;5035167;28;45282;-72
2022/06/24 10:16:08;;;;;;;;;0.25;0.25;;;;;22.85;52.02;100367.00;5035059;28;45527;-71
2022/06/24 10:18:37;;;;;;;;;1.50;1.50;;;;;22.77;52.62;100359.59;5013463;28;45293;-70
2022/06/24 10:21:05;;;;;;;;;1.25;1.25;;;;;22.79;52.89;100362.16;5034755;28;46039;-72
2022/06/24 10:23:41;;;;;;;;;3.00;1.00;;;;;22.86;52.74;100364.09;5034767;28;45443;-72
2022/06/24 10:26:10;;;;;;;;;4.00;2.50;;;;;22.95;52.95;100365.88;5035214;28;45270;-70
2022/06/24 10:29:04;;;;;;;;;1.00;1.00;;;;;22.96;52.03;100373.09;5033881;28;45408;-74
2022/06/24 10:31:53;;;;;;;;;0.50;0.50;;;;;23.09;51.59;100363.59;5015646;28;47231;-75
2022/06/24 10:34:28;;;;;;;;;1.00;1.00;;;;;23.09;51.46;100364.44;5017623;28;45272;-76
2022/06/24 10:36:58;;;;;;;;;1.75;1.75;;;;;23.14;51.46;100353.88;5035745;28;45409;-78
2022/06/24 10:39:26;;;;;;;;;2.00;2.00;;;;;23.22;52.36;100353.09;5035168;28;45225;-74
2022/06/24 10:42:02;;;;;;;;;1.00;1.00;;;;;23.28;51.71;100338.75;5035298;28;45407;-75
2022/06/24 10:44:34;;;;;;;;;1.00;1.00;;;;;23.33;50.66;100350.06;5022125;28;45761;-72
2022/06/24 10:47:08;;;;;;;;;2.00;2.00;;;;;23.39;50.72;100346.72;5034965;28;45506;-74
2022/06/24 10:49:52;;;;;;;;;1.75;0.50;;;;;23.45;51.01;100337.84;5035304;28;45444;-74
2022/06/24 10:52:33;;;;;;;;;1.50;1.50;;;;;23.60;51.35;100347.19;5035712;28;45561;-73
2022/06/24 10:57:50;;;;;;;;;2.00;0.75;;;;;23.68;48.60;100344.47;5015364;28;45377;-74
2022/06/24 11:00:17;;;;;;;;;1.50;0.50;;;;;23.75;47.22;100340.06;5015323;28;45547;-75
2022/06/24 11:02:45;;;;;;;;;1.00;1.00;;;;;23.79;47.69;100339.75;5015175;28;45468;-78
2022/06/24 11:05:41;;;;;;;;;1.25;1.25;;;;;23.91;47.40;100330.19;5014058;28;45247;-74
2022/06/24 11:08:25;;;;;;;;;1.50;1.50;;;;;24.07;46.63;100328.34;5023301;28;45286;-73
2022/06/24 11:10:52;;;;;;;;;2.00;1.00;;;;;24.09;46.84;100336.41;5026586;28;45424;-71
2022/06/24 11:13:18;;;;;;;;;0.75;0.75;;;;;24.00;47.46;100329.19;5034991;28;46044;-73
2022/06/24 11:15:48;;;;;;;;;0.50;0.50;;;;;24.06;47.71;100340.34;5034665;28;45450;-71
2022/06/24 11:18:31;;;;;;;;;0.00;0.00;;;;;23.98;48.04;100336.72;5033710;28;45516;-70
2022/06/24 11:21:02;;;;;;;;;0.75;0.50;;;;;24.05;47.86;100341.38;5034800;28;45394;-70
2022/06/24 11:23:30;;;;;;;;;1.50;1.00;;;;;24.00;47.95;100345.63;5016267;28;46260;-71
2022/06/24 11:26:15;;;;;;;;;1.00;1.00;;;;;23.88;48.61;100336.00;5034347;28;45538;-69
2022/06/24 11:28:42;;;;;;;;;2.50;1.00;;;;;23.95;48.46;100343.38;5033350;28;45449;-69
2022/06/24 11:31:27;;;;;;;;;1.00;1.00;;;;;24.01;49.10;100337.25;5033167;28;45502;-69
2022/06/24 11:33:58;;;;;;;;;2.00;2.00;;;;;24.10;48.69;100343.59;5033946;28;46076;-71
2022/06/24 11:36:27;;;;;;;;;1.00;1.00;;;;;24.06;48.97;100329.41;5035692;28;45372;-69
2022/06/24 11:39:06;;;;;;;;;0.50;0.50;;;;;24.01;48.63;100330.91;5016783;28;45343;-68
2022/06/24 11:41:38;;;;;;;;;2.00;2.00;;;;;24.04;49.28;100339.66;5027583;28;45206;-67
2022/06/24 11:44:03;;;;;;;;;1.00;1.00;;;;;23.95;50.95;100339.78;5030497;28;45363;-71
2022/06/24 11:46:29;;;;;;;;;1.00;1.00;;;;;23.80;50.51;100344.19;5032167;28;45404;-70
2022/06/24 11:49:14;;;;;;;;;2.25;2.00;;;;;23.69;51.35;100350.81;5029557;28;45242;-71
2022/06/24 11:51:45;;;;;;;;;1.75;1.75;;;;;23.68;51.90;100351.81;5009972;28;47075;-69
2022/06/24 11:54:11;;;;;;;;;0.00;0.00;;;;;23.67;50.26;100345.50;5033559;28;45435;-70
2022/06/24 11:56:41;;;;;;;;;3.00;1.00;;;;;23.70;50.98;100349.78;5033874;28;45470;-68
2022/06/24 11:59:07;;;;;;;;;1.50;1.50;;;;;23.71;50.61;100351.50;5034074;28;45876;-68
2022/06/24 12:01:34;;;;;;;;;0.75;0.75;;;;;23.73;51.19;100349.47;5033444;28;45286;-67
2022/06/24 12:04:01;;;;;;;;;2.00;2.00;;;;;23.72;50.82;100350.50;5033590;28;46179;-68
2022/06/24 12:06:28;;;;;;;;;0.75;0.75;;;;;23.80;51.69;100346.94;5031628;28;45609;-68
2022/06/24 12:08:56;;;;;;;;;2.25;1.00;;;;;23.87;53.37;100359.78;5022295;28;45395;-69
2022/06/24 12:11:23;;;;;;;;;1.00;1.00;;;;;23.86;54.59;100354.47;5033579;28;45600;-68
2022/06/24 12:14:03;;;;;;;;;0.50;0.50;;;;;23.81;54.63;100354.13;5033394;28;45535;-67
2022/06/24 12:16:59;;;;;;;;;1.00;1.00;;;;;23.93;55.35;100352.78;5033372;28;45534;-71
2022/06/24 12:19:25;;;;;;;;;2.00;2.00;;;;;23.98;55.40;100350.44;5034021;28;45400;-70
2022/06/24 12:22:11;;;;;;;;;2.00;2.00;;;;;24.10;55.96;100352.66;5034230;28;45506;-70
2022/06/24 12:24:38;;;;;;;;;1.75;1.75;;;;;24.07;53.72;100333.00;5033078;28;45377;-71
2022/06/24 12:27:05;;;;;;;;;1.25;1.25;;;;;24.28;54.64;100352.59;5033295;28;45377;-70
2022/06/24 12:29:34;;;;;;;;;2.00;2.00;;;;;24.24;51.21;100353.97;5017269;28;45497;-72
2022/06/24 12:32:01;;;;;;;;;0.75;0.75;;;;;24.34;50.69;100345.56;5016251;28;45502;-69
2022/06/24 12:34:28;;;;;;;;;1.75;0.00;;;;;24.49;49.57;100342.00;5016519;28;46009;-68
2022/06/24 12:37:06;;;;;;;;;0.00;0.00;;;;;24.67;47.54;100330.84;5029520;28;45424;-69
2022/06/24 12:39:42;;;;;;;;;0.50;0.50;;;;;24.69;47.58;100309.63;5037022;28;45451;-69
2022/06/24 12:42:17;;;;;;;;;0.50;0.50;;;;;24.72;47.43;100313.91;5036670;28;45426;-70
2022/06/24 12:44:53;;;;;;;;;1.00;1.00;;;;;25.06;47.01;100317.34;5037180;28;45413;-69
2022/06/24 12:50:35;;;;;;;;;0.00;0.00;;;;;25.53;45.70;100305.53;4975224;28;45355;-68
2022/06/24 12:53:03;;;;;;;;;0.75;0.75;;;;;25.49;45.72;100304.19;4969049;28;45386;-70
2022/06/24 12:55:31;;;;;;;;;2.75;1.75;;;;;25.23;45.57;100297.06;5003537;28;46205;-68
2022/06/24 12:57:56;;;;;;;;;1.50;1.50;;;;;25.07;46.39;100297.13;5016769;28;45277;-69
2022/06/24 13:00:22;;;;;;;;;1.00;1.00;;;;;24.81;48.91;100326.59;5016489;28;45583;-69
2022/06/24 13:02:52;;;;;;;;;1.25;1.00;;;;;24.42;54.87;100332.72;5011335;28;46819;-68
2022/06/24 13:05:19;;;;;;;;;1.75;1.75;;;;;23.95;53.95;100318.75;5030357;28;45799;-70
2022/06/24 13:07:45;;;;;;;;;1.00;1.00;;;;;23.76;55.28;100314.41;5016928;28;45504;-67
2022/06/24 13:10:11;;;;;;;;;2.50;2.50;;;;;23.80;54.53;100303.13;5036367;28;45497;-66
2022/06/24 13:12:38;;;;;;;;;2.00;2.00;;;;;23.83;54.44;100295.41;5036778;28;45499;-69
2022/06/24 13:15:05;;;;;;;;;3.50;2.25;;;;;24.10;55.67;100314.31;5036258;28;46142;-68
2022/06/24 13:17:31;;;;;;;;;2.00;2.00;;;;;24.18;55.16;100320.84;5036773;28;45467;-67
2022/06/24 13:19:57;;;;;;;;;2.50;2.25;;;;;24.12;54.37;100322.38;5016745;28;45612;-67
2022/06/24 13:22:22;;;;;;;;;1.00;1.00;;;;;24.25;54.10;100328.25;5029649;28;45249;-70
2022/06/24 13:24:48;;;;;;;;;1.50;1.50;;;;;24.36;53.14;100316.97;5016179;28;45409;-72
2022/06/24 13:27:13;;;;;;;;;3.00;2.00;;;;;24.47;52.25;100315.78;5016583;28;45339;-70
2022/06/24 13:29:39;;;;;;;;;2.75;2.75;;;;;24.74;51.11;100342.88;5036107;28;45539;-69
2022/06/24 13:32:05;;;;;;;;;1.50;1.50;;;;;24.93;50.29;100335.34;5036077;28;45462;-69
2022/06/24 13:34:31;;;;;;;;;0.50;0.50;;;;;24.95;49.31;100330.53;5036215;28;46116;-68
2022/06/24 13:36:57;;;;;;;;;1.00;1.00;;;;;24.77;48.42;100337.03;5036105;28;45467;-68
2022/06/24 13:39:22;;;;;;;;;1.00;1.00;;;;;24.80;49.58;100341.34;5035688;28;45359;-70
2022/06/24 13:41:48;;;;;;;;;1.75;1.75;;;;;24.62;48.45;100326.94;5035877;28;45522;-70
2022/06/24 13:44:13;;;;;;;;;2.25;1.75;;;;;24.58;47.63;100333.81;5036094;28;46289;-70
2022/06/24 13:46:39;;;;;;;;;1.00;0.50;;;;;24.54;47.95;100327.78;5036474;28;45371;-68
2022/06/24 13:49:04;;;;;;;;;1.00;1.00;;;;;24.61;48.06;100328.81;5036470;28;45355;-69
2022/06/24 13:51:30;;;;;;;;;2.00;2.00;;;;;24.73;48.29;100323.84;5023773;28;45390;-68
2022/06/24 13:53:55;;;;;;;;;1.00;1.00;;;;;24.95;48.33;100336.03;5016838;28;46539;-69
2022/06/24 13:56:21;;;;;;;;;1.00;1.00;;;;;25.00;47.03;100340.00;5036197;28;45290;-70
2022/06/24 13:58:48;;;;;;;;;3.00;2.00;;;;;25.06;46.21;100343.91;5035863;28;45467;-67
2022/06/24 14:01:14;;;;;;;;;0.50;0.50;;;;;25.19;46.28;100328.63;5036517;28;45276;-69
2022/06/24 14:03:40;;;;;;;;;2.00;2.00;;;;;25.40;44.58;100325.31;5035797;28;46424;-72
2022/06/24 14:06:05;;;;;;;;;1.00;1.00;;;;;25.58;43.05;100322.34;5035622;28;45276;-71
2022/06/24 14:08:31;;;;;;;;;0.75;0.75;;;;;25.99;41.56;100309.31;5029685;28;46041;-73
2022/06/24 14:10:56;;;;;;;;;3.00;2.00;;;;;26.43;41.34;100333.47;5027994;28;45499;-73
2022/06/24 14:13:22;;;;;;;;;1.00;1.00;;;;;26.48;40.47;100318.13;5035271;28;45335;-74
2022/06/24 14:15:48;;;;;;;;;0.75;0.75;;;;;26.95;40.77;100325.34;5034671;28;45336;-70
2022/06/24 14:18:13;;;;;;;;;2.50;1.00;;;;;27.28;39.43;100323.09;5033979;28;45379;-70
2022/06/24 14:20:40;;;;;;;;;0.50;0.00;;;;;27.60;39.18;100328.28;5035826;28;45432;-71
2022/06/24 14:25:49;;;;;;;;;1.50;1.50;;;;;27.99;38.62;100329.81;5034763;28;45393;-72
2022/06/24 14:28:15;;;;;;;;;2.00;2.00;;;;;27.74;39.19;100327.41;5035417;28;45506;-72
2022/06/24 14:30:40;;;;;;;;;1.50;1.50;;;;;27.46;39.82;100327.22;5035352;28;45368;-70
2022/06/24 14:33:05;;;;;;;;;4.75;4.75;;;;;27.90;39.74;100317.25;5034848;28;45333;-72
2022/06/24 14:35:31;;;;;;;;;1.50;1.50;;;;;28.48;37.68;100303.31;5035167;28;45383;-70
2022/06/24 14:40:40;;;;;;;;;2.25;2.25;;;;;28.75;37.21;100318.16;5035413;28;45312;-71
2022/06/24 14:43:05;;;;;;;;;3.00;3.00;;;;;28.66;36.87;100321.28;5034915;28;46222;-69
2022/06/24 14:45:31;;;;;;;;;1.75;1.75;;;;;28.87;37.46;100299.22;5035022;28;45411;-72
2022/06/24 14:47:58;;;;;;;;;2.00;2.00;;;;;29.45;36.39;100311.78;5035605;28;45302;-70
2022/06/24 14:50:25;;;;;;;;;1.25;1.25;;;;;29.86;35.48;100322.00;5017099;28;46046;-71
2022/06/24 14:52:50;;;;;;;;;4.00;2.75;;;;;30.03;35.42;100304.84;5035042;28;45425;-70
2022/06/24 14:55:16;;;;;;;;;4.75;2.00;;;;;29.93;34.04;100271.22;5034936;28;45401;-71
2022/06/24 14:57:41;;;;;;;;;3.00;1.75;;;;;30.32;33.91;100292.63;5035011;28;45454;-70
2022/06/24 15:00:08;;;;;;;;;2.00;2.00;;;;;30.82;34.04;100288.44;5018103;28;45466;-70
2022/06/24 15:02:33;;;;;;;;;3.00;3.00;;;;;30.74;33.00;100294.19;5014756;28;45399;-71
2022/06/24 15:04:58;;;;;;;;;2.00;2.00;;;;;30.53;33.48;100288.00;5031607;28;45434;-68
2022/06/24 15:07:24;;;;;;;;;5.00;1.75;;;;;30.07;33.40;100289.56;5034614;28;45444;-71
2022/06/24 15:09:49;;;;;;;;;2.50;2.50;;;;;29.19;34.03;100297.75;5033115;28;45472;-73
2022/06/24 15:12:17;;;;;;;;;2.25;2.25;;;;;28.53;35.68;100320.09;5033941;28;46103;-70
2022/06/24 15:14:43;;;;;;;;;1.25;1.25;;;;;27.81;37.65;100364.19;5030289;28;45353;-68
2022/06/24 15:17:12;;;;;;;;;2.00;2.00;;;;;27.10;38.84;100317.97;5014320;28;45384;-71
2022/06/24 15:19:38;;;;;;;;;2.00;2.00;;;;;26.51;38.91;100363.66;5018298;28;45354;-70
2022/06/24 15:22:03;;;;;;;;;0.00;0.00;;;;;25.81;40.12;100349.91;5034717;28;45337;-72
2022/06/24 15:24:29;;;;;;;;;3.00;3.00;;;;;25.57;40.96;100353.56;5034301;28;45466;-71
2022/06/24 15:26:54;;;;;;;;;2.75;0.75;;;;;25.15;41.68;100309.97;5024903;28;45580;-73
2022/06/24 15:29:19;;;;;;;;;1.25;1.25;;;;;25.18;41.56;100351.59;5017213;28;45554;-75
2022/06/24 15:31:45;;;;;;;;;2.25;2.25;;;;;24.93;42.13;100344.44;5033905;28;45380;-71
2022/06/24 15:34:11;;;;;;;;;1.00;1.00;;;;;24.75;42.16;100352.78;5034339;28;45364;-72
2022/06/24 15:36:36;;;;;;;;;1.50;1.50;;;;;24.72;42.11;100344.94;5028345;28;45574;-75
2022/06/24 15:39:02;;;;;;;;;1.00;1.00;;;;;24.67;42.69;100354.72;5030363;28;45424;-71
2022/06/24 15:41:27;;;;;;;;;1.75;1.75;;;;;24.59;42.41;100336.34;5021945;28;45570;-72
2022/06/24 15:43:58;;;;;;;;;1.50;1.50;;;;;24.63;43.13;100336.88;5021393;28;45588;-74
2022/06/24 15:46:23;;;;;;;;;2.75;0.50;;;;;24.82;42.79;100328.31;5025083;28;45347;-71
2022/06/24 15:48:49;;;;;;;;;2.50;2.50;;;;;25.08;42.51;100339.13;5034225;28;45482;-73
2022/06/24 15:51:17;;;;;;;;;1.50;1.50;;;;;25.31;41.37;100334.59;5034512;28;46019;-72
2022/06/24 15:53:42;;;;;;;;;2.00;2.00;;;;;25.55;41.37;100331.78;5034450;28;45238;-71
2022/06/24 15:56:07;;;;;;;;;1.50;1.50;;;;;26.02;39.62;100343.81;5034712;28;45337;-71
2022/06/24 15:58:35;;;;;;;;;1.75;1.75;;;;;26.32;39.09;100316.34;5034511;28;45654;-73
